sensor_id;sensor_type;location;lat;lon;timestamp;temperature;humidity
27276;DHT22;14772;47.398;8.080;2022-11-27T00:01:09;5.60;99.90
27276;DHT22;14772;47.398;8.080;2022-11-27T00:06:07;5.60;99.90
27276;DHT22;14772;47.398;8.080;2022-11-27T00:11:06;5.60;99.90
27276;DHT22;14772;47.398;8.080;2022-11-27T00:16:05;5.60;99.90
27276;DHT22;14772;47.398;8.080;2022-11-27T00:21:03;5.60;99.90
27276;DHT22;14772;47.398;8.080;2022-11-27T00:26:02;5.60;99.90
27276;DHT22;14772;47.398;8.080;2022-11-27T00:30:59;5.70;99.90
27276;DHT22;14772;47.398;8.080;2022-11-27T00:36:01;5.60;99.90
27276;DHT22;14772;47.398;8.080;2022-11-27T00:41:03;5.70;99.90
27276;DHT22;14772;47.398;8.080;2022-11-27T00:45:58;5.30;99.90
27276;DHT22;14772;47.398;8.080;2022-11-27T00:50:59;5.10;99.90
27276;DHT22;14772;47.398;8.080;2022-11-27T00:55:57;5.20;99.90
27276;DHT22;14772;47.398;8.080;2022-11-27T01:00:55;5.10;99.90
27276;DHT22;14772;47.398;8.080;2022-11-27T01:05:52;5.10;99.90
27276;DHT22;14772;47.398;8.080;2022-11-27T01:10:51;4.90;99.90
27276;DHT22;14772;47.398;8.080;2022-11-27T01:15:57;5.10;99.90
27276;DHT22;14772;47.398;8.080;2022-11-27T01:20:54;5.20;99.90
27276;DHT22;14772;47.398;8.080;2022-11-27T01:25:52;5.20;99.90
27276;DHT22;14772;47.398;8.080;2022-11-27T01:30:50;5.00;99.90
27276;DHT22;14772;47.398;8.080;2022-11-27T01:35:54;4.90;99.90
27276;DHT22;14772;47.398;8.080;2022-11-27T01:40:57;5.00;99.90
27276;DHT22;14772;47.398;8.080;2022-11-27T01:45:54;5.10;99.90
27276;DHT22;14772;47.398;8.080;2022-11-27T01:50:51;5.10;99.90
27276;DHT22;14772;47.398;8.080;2022-11-27T01:55:51;5.20;99.90
27276;DHT22;14772;47.398;8.080;2022-11-27T02:00:49;5.20;99.90
27276;DHT22;14772;47.398;8.080;2022-11-27T02:05:47;5.40;99.90
27276;DHT22;14772;47.398;8.080;2022-11-27T02:10:50;5.30;99.90
27276;DHT22;14772;47.398;8.080;2022-11-27T02:15:51;5.30;99.90
27276;DHT22;14772;47.398;8.080;2022-11-27T02:20:52;5.20;99.90
27276;DHT22;14772;47.398;8.080;2022-11-27T02:25:59;5.20;99.90
27276;DHT22;14772;47.398;8.080;2022-11-27T02:31:00;5.40;99.90
27276;DHT22;14772;47.398;8.080;2022-11-27T02:36:00;5.50;99.90
27276;DHT22;14772;47.398;8.080;2022-11-27T02:41:02;5.60;99.90
27276;DHT22;14772;47.398;8.080;2022-11-27T02:46:00;5.60;99.90
27276;DHT22;14772;47.398;8.080;2022-11-27T02:51:00;5.60;99.90
27276;DHT22;14772;47.398;8.080;2022-11-27T02:55:59;5.80;99.90
27276;DHT22;14772;47.398;8.080;2022-11-27T03:00:57;5.80;99.90
27276;DHT22;14772;47.398;8.080;2022-11-27T03:05:58;5.80;99.90
27276;DHT22;14772;47.398;8.080;2022-11-27T03:10:59;5.80;99.90
27276;DHT22;14772;47.398;8.080;2022-11-27T03:16:01;5.80;99.90
27276;DHT22;14772;47.398;8.080;2022-11-27T03:21:01;5.90;99.90
27276;DHT22;14772;47.398;8.080;2022-11-27T03:25:59;5.80;99.90
27276;DHT22;14772;47.398;8.080;2022-11-27T03:30:56;5.90;99.90
27276;DHT22;14772;47.398;8.080;2022-11-27T03:35:53;5.90;99.90
27276;DHT22;14772;47.398;8.080;2022-11-27T03:40:53;5.80;99.90
27276;DHT22;14772;47.398;8.080;2022-11-27T03:45:55;5.80;99.90
27276;DHT22;14772;47.398;8.080;2022-11-27T03:50:59;5.90;99.90
27276;DHT22;14772;47.398;8.080;2022-11-27T03:56:02;5.90;99.90
27276;DHT22;14772;47.398;8.080;2022-11-27T04:01:00;5.70;99.90
27276;DHT22;14772;47.398;8.080;2022-11-27T04:05:59;5.60;99.90
27276;DHT22;14772;47.398;8.080;2022-11-27T04:10:57;5.70;99.90
27276;DHT22;14772;47.398;8.080;2022-11-27T04:15:54;5.80;99.90
27276;DHT22;14772;47.398;8.080;2022-11-27T04:20:51;5.90;99.90
27276;DHT22;14772;47.398;8.080;2022-11-27T04:25:49;5.90;99.90
27276;DHT22;14772;47.398;8.080;2022-11-27T04:30:50;6.00;99.90
27276;DHT22;14772;47.398;8.080;2022-11-27T04:35:47;5.90;99.90
27276;DHT22;14772;47.398;8.080;2022-11-27T04:40:45;5.90;99.90
27276;DHT22;14772;47.398;8.080;2022-11-27T04:45:42;5.90;99.90
27276;DHT22;14772;47.398;8.080;2022-11-27T04:50:40;6.00;99.90
27276;DHT22;14772;47.398;8.080;2022-11-27T04:55:56;6.00;99.90
27276;DHT22;14772;47.398;8.080;2022-11-27T05:00:53;6.10;99.90
27276;DHT22;14772;47.398;8.080;2022-11-27T05:05:55;6.00;99.90
27276;DHT22;14772;47.398;8.080;2022-11-27T05:10:59;6.00;99.90
27276;DHT22;14772;47.398;8.080;2022-11-27T05:15:57;6.00;99.90
27276;DHT22;14772;47.398;8.080;2022-11-27T05:20:58;6.00;99.90
27276;DHT22;14772;47.398;8.080;2022-11-27T05:25:56;5.90;99.90
27276;DHT22;14772;47.398;8.080;2022-11-27T05:30:53;5.70;99.90
27276;DHT22;14772;47.398;8.080;2022-11-27T05:35:50;5.80;99.90
27276;DHT22;14772;47.398;8.080;2022-11-27T05:40:48;5.90;99.90
27276;DHT22;14772;47.398;8.080;2022-11-27T05:45:45;5.90;99.90
27276;DHT22;14772;47.398;8.080;2022-11-27T05:50:42;5.90;99.90
27276;DHT22;14772;47.398;8.080;2022-11-27T05:55:39;5.90;99.90
27276;DHT22;14772;47.398;8.080;2022-11-27T06:00:36;5.90;99.90
27276;DHT22;14772;47.398;8.080;2022-11-27T06:05:37;5.90;99.90
27276;DHT22;14772;47.398;8.080;2022-11-27T06:10:36;5.80;99.90
27276;DHT22;14772;47.398;8.080;2022-11-27T06:15:34;5.90;99.90
27276;DHT22;14772;47.398;8.080;2022-11-27T06:20:32;5.80;99.90
27276;DHT22;14772;47.398;8.080;2022-11-27T06:25:29;5.70;99.90
27276;DHT22;14772;47.398;8.080;2022-11-27T06:30:26;5.70;99.90
27276;DHT22;14772;47.398;8.080;2022-11-27T06:35:23;5.60;99.90
27276;DHT22;14772;47.398;8.080;2022-11-27T06:40:20;5.70;99.90
27276;DHT22;14772;47.398;8.080;2022-11-27T06:45:17;5.60;99.90
27276;DHT22;14772;47.398;8.080;2022-11-27T06:50:15;5.60;99.90
27276;DHT22;14772;47.398;8.080;2022-11-27T06:55:12;5.60;99.90
27276;DHT22;14772;47.398;8.080;2022-11-27T07:00:11;5.50;99.90
27276;DHT22;14772;47.398;8.080;2022-11-27T07:05:09;5.50;99.90
27276;DHT22;14772;47.398;8.080;2022-11-27T07:10:08;5.60;99.90
27276;DHT22;14772;47.398;8.080;2022-11-27T07:15:07;5.60;99.90
27276;DHT22;14772;47.398;8.080;2022-11-27T07:20:07;5.70;99.90
27276;DHT22;14772;47.398;8.080;2022-11-27T07:25:06;5.70;99.90
27276;DHT22;14772;47.398;8.080;2022-11-27T07:30:05;5.70;99.90
27276;DHT22;14772;47.398;8.080;2022-11-27T07:35:03;5.70;99.90
27276;DHT22;14772;47.398;8.080;2022-11-27T07:40:00;5.90;99.90
27276;DHT22;14772;47.398;8.080;2022-11-27T07:44:57;5.80;99.90
27276;DHT22;14772;47.398;8.080;2022-11-27T07:49:54;5.80;99.90
27276;DHT22;14772;47.398;8.080;2022-11-27T07:54:52;5.90;99.90
27276;DHT22;14772;47.398;8.080;2022-11-27T07:59:49;5.90;99.90
27276;DHT22;14772;47.398;8.080;2022-11-27T08:04:46;5.90;99.90
27276;DHT22;14772;47.398;8.080;2022-11-27T08:09:43;5.90;99.90
27276;DHT22;14772;47.398;8.080;2022-11-27T08:14:40;5.90;99.90
27276;DHT22;14772;47.398;8.080;2022-11-27T08:19:37;5.90;99.90
27276;DHT22;14772;47.398;8.080;2022-11-27T08:24:35;5.90;99.90
27276;DHT22;14772;47.398;8.080;2022-11-27T08:29:32;5.80;99.90
27276;DHT22;14772;47.398;8.080;2022-11-27T08:34:30;5.90;99.90
27276;DHT22;14772;47.398;8.080;2022-11-27T08:39:28;5.90;99.90
27276;DHT22;14772;47.398;8.080;2022-11-27T08:44:25;5.90;99.90
27276;DHT22;14772;47.398;8.080;2022-11-27T08:49:22;6.00;99.90
27276;DHT22;14772;47.398;8.080;2022-11-27T08:54:38;5.90;99.90
27276;DHT22;14772;47.398;8.080;2022-11-27T08:59:36;6.00;99.90
27276;DHT22;14772;47.398;8.080;2022-11-27T09:04:33;6.00;99.90
27276;DHT22;14772;47.398;8.080;2022-11-27T09:09:30;6.10;99.90
27276;DHT22;14772;47.398;8.080;2022-11-27T09:14:27;6.10;99.90
27276;DHT22;14772;47.398;8.080;2022-11-27T09:19:25;6.30;99.90
27276;DHT22;14772;47.398;8.080;2022-11-27T09:24:23;6.30;99.90
27276;DHT22;14772;47.398;8.080;2022-11-27T09:29:20;6.40;99.90
27276;DHT22;14772;47.398;8.080;2022-11-27T09:34:18;6.30;99.90
27276;DHT22;14772;47.398;8.080;2022-11-27T09:39:15;6.40;99.90
27276;DHT22;14772;47.398;8.080;2022-11-27T09:44:28;6.40;99.90
27276;DHT22;14772;47.398;8.080;2022-11-27T09:49:30;6.40;99.90
27276;DHT22;14772;47.398;8.080;2022-11-27T09:54:49;6.30;99.90
27276;DHT22;14772;47.398;8.080;2022-11-27T09:59:49;6.40;99.90
27276;DHT22;14772;47.398;8.080;2022-11-27T10:04:47;6.50;99.90
27276;DHT22;14772;47.398;8.080;2022-11-27T10:09:53;6.50;99.90
27276;DHT22;14772;47.398;8.080;2022-11-27T10:14:59;6.60;99.90
27276;DHT22;14772;47.398;8.080;2022-11-27T10:20:00;6.70;99.90
27276;DHT22;14772;47.398;8.080;2022-11-27T10:25:04;6.60;99.90
27276;DHT22;14772;47.398;8.080;2022-11-27T10:30:08;6.70;99.90
27276;DHT22;14772;47.398;8.080;2022-11-27T10:35:08;6.80;99.90
27276;DHT22;14772;47.398;8.080;2022-11-27T10:40:10;6.80;99.90
27276;DHT22;14772;47.398;8.080;2022-11-27T10:45:19;6.80;99.90
27276;DHT22;14772;47.398;8.080;2022-11-27T10:50:13;7.00;99.90
27276;DHT22;14772;47.398;8.080;2022-11-27T10:55:14;7.00;99.90
27276;DHT22;14772;47.398;8.080;2022-11-27T11:00:18;6.80;99.90
27276;DHT22;14772;47.398;8.080;2022-11-27T11:05:21;7.00;99.90
27276;DHT22;14772;47.398;8.080;2022-11-27T11:10:43;7.20;99.90
27276;DHT22;14772;47.398;8.080;2022-11-27T11:15:50;7.20;99.90
27276;DHT22;14772;47.398;8.080;2022-11-27T11:20:48;7.50;99.90
27276;DHT22;14772;47.398;8.080;2022-11-27T11:25:49;7.40;99.90
27276;DHT22;14772;47.398;8.080;2022-11-27T11:30:58;7.70;99.90
27276;DHT22;14772;47.398;8.080;2022-11-27T11:36:00;7.70;99.90
27276;DHT22;14772;47.398;8.080;2022-11-27T11:41:02;7.80;99.90
27276;DHT22;14772;47.398;8.080;2022-11-27T11:46:17;7.90;99.90
27276;DHT22;14772;47.398;8.080;2022-11-27T11:51:17;8.10;99.90
27276;DHT22;14772;47.398;8.080;2022-11-27T11:56:24;8.20;99.90
27276;DHT22;14772;47.398;8.080;2022-11-27T12:12:17;8.40;99.90
27276;DHT22;14772;47.398;8.080;2022-11-27T12:17:24;8.50;99.90
27276;DHT22;14772;47.398;8.080;2022-11-27T12:22:31;8.40;99.90
27276;DHT22;14772;47.398;8.080;2022-11-27T12:27:32;8.50;99.90
27276;DHT22;14772;47.398;8.080;2022-11-27T12:32:50;8.70;99.90
27276;DHT22;14772;47.398;8.080;2022-11-27T12:37:52;8.90;99.90
27276;DHT22;14772;47.398;8.080;2022-11-27T12:42:52;8.80;99.90
27276;DHT22;14772;47.398;8.080;2022-11-27T12:47:53;8.70;99.90
27276;DHT22;14772;47.398;8.080;2022-11-27T12:52:54;8.70;99.90
27276;DHT22;14772;47.398;8.080;2022-11-27T12:57:55;8.80;99.90
27276;DHT22;14772;47.398;8.080;2022-11-27T13:02:59;8.80;99.90
27276;DHT22;14772;47.398;8.080;2022-11-27T13:08:00;8.80;99.90
27276;DHT22;14772;47.398;8.080;2022-11-27T13:13:03;8.70;99.90
27276;DHT22;14772;47.398;8.080;2022-11-27T13:18:03;8.70;99.90
27276;DHT22;14772;47.398;8.080;2022-11-27T13:23:01;8.70;99.90
27276;DHT22;14772;47.398;8.080;2022-11-27T13:28:00;8.70;99.90
27276;DHT22;14772;47.398;8.080;2022-11-27T13:32:59;8.70;99.90
27276;DHT22;14772;47.398;8.080;2022-11-27T13:38:01;8.70;99.90
27276;DHT22;14772;47.398;8.080;2022-11-27T13:43:01;8.80;99.90
27276;DHT22;14772;47.398;8.080;2022-11-27T13:48:00;8.70;99.90
27276;DHT22;14772;47.398;8.080;2022-11-27T13:52:59;8.60;99.90
27276;DHT22;14772;47.398;8.080;2022-11-27T13:57:58;8.70;99.90
27276;DHT22;14772;47.398;8.080;2022-11-27T14:02:56;8.50;99.90
27276;DHT22;14772;47.398;8.080;2022-11-27T14:07:54;8.60;99.90
27276;DHT22;14772;47.398;8.080;2022-11-27T14:12:53;8.60;99.90
27276;DHT22;14772;47.398;8.080;2022-11-27T14:18:02;8.60;99.90
27276;DHT22;14772;47.398;8.080;2022-11-27T14:23:00;8.50;99.90
27276;DHT22;14772;47.398;8.080;2022-11-27T14:28:03;8.40;99.90
27276;DHT22;14772;47.398;8.080;2022-11-27T14:32:58;8.40;99.90
27276;DHT22;14772;47.398;8.080;2022-11-27T14:38:09;8.30;99.90
27276;DHT22;14772;47.398;8.080;2022-11-27T14:43:13;8.30;99.90
27276;DHT22;14772;47.398;8.080;2022-11-27T14:48:15;8.20;99.90
27276;DHT22;14772;47.398;8.080;2022-11-27T14:53:14;8.10;99.90
27276;DHT22;14772;47.398;8.080;2022-11-27T14:58:17;8.20;99.90
27276;DHT22;14772;47.398;8.080;2022-11-27T15:03:17;8.20;99.90
27276;DHT22;14772;47.398;8.080;2022-11-27T15:08:15;8.00;99.90
27276;DHT22;14772;47.398;8.080;2022-11-27T15:13:21;8.10;99.90
27276;DHT22;14772;47.398;8.080;2022-11-27T15:18:20;8.10;99.90
27276;DHT22;14772;47.398;8.080;2022-11-27T15:23:21;8.00;99.90
27276;DHT22;14772;47.398;8.080;2022-11-27T15:28:31;8.00;99.90
27276;DHT22;14772;47.398;8.080;2022-11-27T15:33:30;8.10;99.90
27276;DHT22;14772;47.398;8.080;2022-11-27T15:38:27;8.10;99.90
27276;DHT22;14772;47.398;8.080;2022-11-27T15:43:24;8.10;99.90
27276;DHT22;14772;47.398;8.080;2022-11-27T15:48:22;8.00;99.90
27276;DHT22;14772;47.398;8.080;2022-11-27T15:53:19;7.90;99.90
27276;DHT22;14772;47.398;8.080;2022-11-27T15:58:17;8.00;99.90
27276;DHT22;14772;47.398;8.080;2022-11-27T16:03:14;8.00;99.90
27276;DHT22;14772;47.398;8.080;2022-11-27T16:08:11;8.00;99.90
27276;DHT22;14772;47.398;8.080;2022-11-27T16:13:08;8.00;99.90
27276;DHT22;14772;47.398;8.080;2022-11-27T16:18:06;7.90;99.90
27276;DHT22;14772;47.398;8.080;2022-11-27T16:23:03;7.80;99.90
27276;DHT22;14772;47.398;8.080;2022-11-27T16:28:00;7.70;99.90
27276;DHT22;14772;47.398;8.080;2022-11-27T16:32:57;7.70;99.90
27276;DHT22;14772;47.398;8.080;2022-11-27T16:37:54;7.80;99.90
27276;DHT22;14772;47.398;8.080;2022-11-27T16:42:51;7.60;99.90
27276;DHT22;14772;47.398;8.080;2022-11-27T16:47:49;7.60;99.90
27276;DHT22;14772;47.398;8.080;2022-11-27T16:52:46;7.70;99.90
27276;DHT22;14772;47.398;8.080;2022-11-27T16:57:43;7.70;99.90
27276;DHT22;14772;47.398;8.080;2022-11-27T17:02:40;7.80;99.90
27276;DHT22;14772;47.398;8.080;2022-11-27T17:07:38;7.70;99.90
27276;DHT22;14772;47.398;8.080;2022-11-27T17:12:35;7.60;99.90
27276;DHT22;14772;47.398;8.080;2022-11-27T17:17:33;7.60;99.90
27276;DHT22;14772;47.398;8.080;2022-11-27T17:22:31;7.60;99.90
27276;DHT22;14772;47.398;8.080;2022-11-27T17:27:28;7.60;99.90
27276;DHT22;14772;47.398;8.080;2022-11-27T17:32:25;7.70;99.90
27276;DHT22;14772;47.398;8.080;2022-11-27T17:37:23;7.60;99.90
27276;DHT22;14772;47.398;8.080;2022-11-27T17:42:20;7.50;99.90
27276;DHT22;14772;47.398;8.080;2022-11-27T17:47:17;7.50;99.90
27276;DHT22;14772;47.398;8.080;2022-11-27T17:52:14;7.30;99.90
27276;DHT22;14772;47.398;8.080;2022-11-27T17:57:11;7.40;99.90
27276;DHT22;14772;47.398;8.080;2022-11-27T18:02:10;7.40;99.90
27276;DHT22;14772;47.398;8.080;2022-11-27T18:07:08;7.40;99.90
27276;DHT22;14772;47.398;8.080;2022-11-27T18:12:06;7.30;99.90
27276;DHT22;14772;47.398;8.080;2022-11-27T18:17:03;7.30;99.90
27276;DHT22;14772;47.398;8.080;2022-11-27T18:22:00;7.30;99.90
27276;DHT22;14772;47.398;8.080;2022-11-27T18:26:58;7.40;99.90
27276;DHT22;14772;47.398;8.080;2022-11-27T18:31:55;7.40;99.90
27276;DHT22;14772;47.398;8.080;2022-11-27T18:36:52;7.30;99.90
27276;DHT22;14772;47.398;8.080;2022-11-27T18:41:49;7.40;99.90
27276;DHT22;14772;47.398;8.080;2022-11-27T18:46:46;7.30;99.90
27276;DHT22;14772;47.398;8.080;2022-11-27T18:51:43;7.30;99.90
27276;DHT22;14772;47.398;8.080;2022-11-27T18:56:41;7.20;99.90
27276;DHT22;14772;47.398;8.080;2022-11-27T19:01:39;7.20;99.90
27276;DHT22;14772;47.398;8.080;2022-11-27T19:06:39;7.20;99.90
27276;DHT22;14772;47.398;8.080;2022-11-27T19:11:37;7.20;99.90
27276;DHT22;14772;47.398;8.080;2022-11-27T19:16:36;7.20;99.90
27276;DHT22;14772;47.398;8.080;2022-11-27T19:21:34;7.20;99.90
27276;DHT22;14772;47.398;8.080;2022-11-27T19:26:33;7.20;99.90
27276;DHT22;14772;47.398;8.080;2022-11-27T19:31:30;7.20;99.90
27276;DHT22;14772;47.398;8.080;2022-11-27T19:36:29;7.20;99.90
27276;DHT22;14772;47.398;8.080;2022-11-27T19:41:27;7.20;99.90
27276;DHT22;14772;47.398;8.080;2022-11-27T19:51:39;7.20;99.90
27276;DHT22;14772;47.398;8.080;2022-11-27T19:56:36;7.20;99.90
27276;DHT22;14772;47.398;8.080;2022-11-27T20:01:34;7.20;99.90
27276;DHT22;14772;47.398;8.080;2022-11-27T20:06:32;7.20;99.90
27276;DHT22;14772;47.398;8.080;2022-11-27T20:11:30;7.20;99.90
27276;DHT22;14772;47.398;8.080;2022-11-27T20:16:27;7.20;99.90
27276;DHT22;14772;47.398;8.080;2022-11-27T20:21:25;7.20;99.90
27276;DHT22;14772;47.398;8.080;2022-11-27T20:26:52;7.20;99.90
27276;DHT22;14772;47.398;8.080;2022-11-27T20:31:49;7.20;99.90
27276;DHT22;14772;47.398;8.080;2022-11-27T20:36:47;7.10;99.90
27276;DHT22;14772;47.398;8.080;2022-11-27T20:41:44;7.00;99.90
27276;DHT22;14772;47.398;8.080;2022-11-27T20:46:41;7.00;99.90
27276;DHT22;14772;47.398;8.080;2022-11-27T20:51:38;7.10;99.90
27276;DHT22;14772;47.398;8.080;2022-11-27T20:56:36;7.10;99.90
27276;DHT22;14772;47.398;8.080;2022-11-27T21:01:34;7.10;99.90
27276;DHT22;14772;47.398;8.080;2022-11-27T21:06:32;7.10;99.90
27276;DHT22;14772;47.398;8.080;2022-11-27T21:11:31;7.10;99.90
27276;DHT22;14772;47.398;8.080;2022-11-27T21:16:30;7.00;99.90
27276;DHT22;14772;47.398;8.080;2022-11-27T21:21:28;7.00;99.90
27276;DHT22;14772;47.398;8.080;2022-11-27T21:26:26;7.10;99.90
27276;DHT22;14772;47.398;8.080;2022-11-27T21:31:25;6.90;99.90
27276;DHT22;14772;47.398;8.080;2022-11-27T21:36:24;7.00;99.90
27276;DHT22;14772;47.398;8.080;2022-11-27T21:41:22;6.90;99.90
27276;DHT22;14772;47.398;8.080;2022-11-27T21:46:20;6.90;99.90
27276;DHT22;14772;47.398;8.080;2022-11-27T21:51:18;6.90;99.90
27276;DHT22;14772;47.398;8.080;2022-11-27T21:56:17;6.90;99.90
27276;DHT22;14772;47.398;8.080;2022-11-27T22:01:16;7.00;99.90
27276;DHT22;14772;47.398;8.080;2022-11-27T22:06:15;7.00;99.90
27276;DHT22;14772;47.398;8.080;2022-11-27T22:11:13;7.00;99.90
27276;DHT22;14772;47.398;8.080;2022-11-27T22:21:20;7.00;99.90
27276;DHT22;14772;47.398;8.080;2022-11-27T22:26:19;7.10;99.90
27276;DHT22;14772;47.398;8.080;2022-11-27T22:31:19;7.00;99.90
27276;DHT22;14772;47.398;8.080;2022-11-27T22:36:18;7.00;99.90
27276;DHT22;14772;47.398;8.080;2022-11-27T22:41:17;7.00;99.90
27276;DHT22;14772;47.398;8.080;2022-11-27T22:46:17;7.00;99.90
27276;DHT22;14772;47.398;8.080;2022-11-27T22:51:14;7.10;99.90
27276;DHT22;14772;47.398;8.080;2022-11-27T22:56:12;7.10;99.90
27276;DHT22;14772;47.398;8.080;2022-11-27T23:01:13;7.00;99.90
27276;DHT22;14772;47.398;8.080;2022-11-27T23:06:12;7.00;99.90
27276;DHT22;14772;47.398;8.080;2022-11-27T23:11:13;7.00;99.90
27276;DHT22;14772;47.398;8.080;2022-11-27T23:16:11;7.00;99.90
27276;DHT22;14772;47.398;8.080;2022-11-27T23:21:11;7.00;99.90
27276;DHT22;14772;47.398;8.080;2022-11-27T23:26:10;7.00;99.90
27276;DHT22;14772;47.398;8.080;2022-11-27T23:31:10;6.70;99.90
27276;DHT22;14772;47.398;8.080;2022-11-27T23:36:09;6.80;99.90
27276;DHT22;14772;47.398;8.080;2022-11-27T23:41:08;6.90;99.90
27276;DHT22;14772;47.398;8.080;2022-11-27T23:46:07;6.90;99.90
27276;DHT22;14772;47.398;8.080;2022-11-27T23:51:08;6.90;99.90
27276;DHT22;14772;47.398;8.080;2022-11-27T23:56:08;6.60;99.90
